»·PEaware :: N2983C KEUG-KRDD

N2983C :: KEUG-KRDD

FLIGHT INFORMATION

Flight Status: Arrived
Operator: Privately registered:
United States
More flights under this callsign
Pilot: Roland C. (21206)
Aircraft: CESSNA 172 SKYHAWK
(C172)
More flights by this aircraft type
Origin: KEUG Mahlon Sweet
United States
Destination: KRDD Redding Mun
United States
More flights between these airports :: More routes between these airports
Route: +
File this flight plan on PilotEdge
Remarks:
Altitude:
(Current/Filed)
9,500ft
Speed:
(Current/Filed)
0kts
Departed: 12-Jan-19 10:30 AM
Arrived: 12-Jan-19 12:03 PM
Distance/Time
Traveled:
221nm/1:32
Distance/Time
To Go:
Arrived

Flight Plot

Page will automatically refresh every two minutes.

Flight plan parsing failed; only flown route is shown


Map Options




Map Legend


Flown Route
Filed Route
Departure Airport
Arrival Airport
Navaid (VOR, NDB)
Fix

Horizontal Profiles

Position Reports

Time Latitude Longitude Heading Altitude Ground
Speed
12-Jan-19 10:29 43.356691 -123.304615 191 9500ft 117kts
12-Jan-19 10:30 43.324747 -123.313421 191 9500ft 117kts
12-Jan-19 10:31 43.292797 -123.322086 191 9502ft 118kts
12-Jan-19 10:32 43.260353 -123.330979 192 9499ft 118kts
12-Jan-19 10:33 43.228018 -123.339835 191 9501ft 118kts
12-Jan-19 10:34 43.195544 -123.346962 192 9500ft 118kts
12-Jan-19 10:35 43.163129 -123.351879 173 9501ft 118kts
12-Jan-19 10:36 43.131822 -123.338636 161 9500ft 118kts
12-Jan-19 10:36 43.106938 -123.323171 159 9500ft 118kts
12-Jan-19 10:38 43.071075 -123.303830 159 9501ft 118kts
12-Jan-19 10:39 43.040534 -123.286856 156 9498ft 118kts
12-Jan-19 10:40 43.010525 -123.268210 154 9501ft 118kts
12-Jan-19 10:41 42.980794 -123.248747 153 9500ft 118kts
12-Jan-19 10:41 42.956028 -123.232213 154 9500ft 118kts
12-Jan-19 10:42 42.926509 -123.212519 153 9500ft 118kts
12-Jan-19 10:43 42.896927 -123.192525 154 9500ft 118kts
12-Jan-19 10:44 42.867354 -123.172549 153 9500ft 118kts
12-Jan-19 10:45 42.837770 -123.152636 154 9501ft 118kts
12-Jan-19 10:46 42.808282 -123.132779 154 9500ft 118kts
12-Jan-19 10:47 42.778654 -123.112867 152 9498ft 118kts
12-Jan-19 10:48 42.749062 -123.093034 153 9500ft 118kts
12-Jan-19 10:49 42.719692 -123.072668 152 9500ft 118kts
12-Jan-19 10:50 42.690293 -123.052335 153 9500ft 118kts
12-Jan-19 10:51 42.660727 -123.032617 154 9500ft 118kts
12-Jan-19 10:52 42.631021 -123.012989 154 9500ft 118kts
12-Jan-19 10:53 42.601467 -122.993493 153 9500ft 118kts
12-Jan-19 10:54 42.571792 -122.973741 154 9500ft 118kts
12-Jan-19 10:55 42.542194 -122.954342 153 9500ft 118kts
12-Jan-19 10:56 42.512610 -122.934858 153 9500ft 118kts
12-Jan-19 10:57 42.482932 -122.915173 153 9501ft 118kts
12-Jan-19 10:58 42.451241 -122.912053 204 9501ft 118kts
12-Jan-19 10:59 42.427832 -122.942623 227 9497ft 118kts
12-Jan-19 11:00 42.396213 -122.943603 171 9502ft 118kts
12-Jan-19 11:01 42.363583 -122.936475 165 9500ft 118kts
12-Jan-19 11:02 42.331706 -122.925943 166 9500ft 118kts
12-Jan-19 11:03 42.299534 -122.915600 166 9500ft 118kts
12-Jan-19 11:04 42.267502 -122.905091 166 9501ft 118kts
12-Jan-19 11:05 42.235327 -122.894720 165 9500ft 118kts
12-Jan-19 11:06 42.203357 -122.884212 166 9500ft 118kts
12-Jan-19 11:07 42.171209 -122.875409 172 9501ft 118kts
12-Jan-19 11:08 42.138338 -122.870329 174 9500ft 118kts
12-Jan-19 11:09 42.105446 -122.866197 174 9498ft 118kts
12-Jan-19 11:10 42.072621 -122.862834 176 9500ft 118kts
12-Jan-19 11:11 42.039721 -122.859512 175 9499ft 118kts
12-Jan-19 11:12 42.006750 -122.856472 176 9500ft 118kts
12-Jan-19 11:13 41.973841 -122.853205 175 9500ft 118kts
12-Jan-19 11:14 41.941003 -122.850050 176 9499ft 118kts
12-Jan-19 11:15 41.908124 -122.846923 174 9500ft 118kts
12-Jan-19 11:16 41.875076 -122.844077 175 9500ft 118kts
12-Jan-19 11:17 41.842192 -122.841175 176 9500ft 118kts
12-Jan-19 11:18 41.809232 -122.838314 176 9500ft 118kts
12-Jan-19 11:19 41.776304 -122.835197 176 9500ft 118kts
12-Jan-19 11:20 41.743313 -122.832304 177 9500ft 118kts
12-Jan-19 11:21 41.710450 -122.829453 176 9500ft 118kts
12-Jan-19 11:22 41.677537 -122.826584 176 9500ft 118kts
12-Jan-19 11:23 41.644527 -122.823686 176 9498ft 118kts
12-Jan-19 11:24 41.611605 -122.820648 176 9501ft 118kts
12-Jan-19 11:25 41.578552 -122.817800 176 9500ft 118kts
12-Jan-19 11:26 41.545704 -122.814810 177 9500ft 118kts
12-Jan-19 11:27 41.512762 -122.811908 175 9500ft 118kts
12-Jan-19 11:28 41.479824 -122.808686 175 9500ft 118kts
12-Jan-19 11:29 41.446787 -122.805511 175 9500ft 118kts
12-Jan-19 11:30 41.417590 -122.788174 153 9502ft 118kts
12-Jan-19 11:31 41.387276 -122.770766 157 9501ft 118kts
12-Jan-19 11:32 41.356605 -122.754380 157 9500ft 118kts
12-Jan-19 11:33 41.326064 -122.737602 157 9501ft 118kts
12-Jan-19 11:34 41.295540 -122.720794 157 9499ft 118kts
12-Jan-19 11:35 41.264930 -122.703966 157 9499ft 118kts
12-Jan-19 11:36 41.234439 -122.687217 157 9500ft 118kts
12-Jan-19 11:37 41.207051 -122.672182 157 9500ft 118kts
12-Jan-19 11:38 41.176452 -122.655402 157 9501ft 118kts
12-Jan-19 11:39 41.145788 -122.638602 157 9500ft 118kts
12-Jan-19 11:40 41.115353 -122.621948 157 9499ft 118kts
12-Jan-19 11:41 41.084690 -122.605186 157 9500ft 118kts
12-Jan-19 11:42 41.054127 -122.588494 157 9499ft 119kts
12-Jan-19 11:43 41.023542 -122.571805 157 9500ft 118kts
12-Jan-19 11:44 40.992947 -122.555128 157 9500ft 118kts
12-Jan-19 11:45 40.962493 -122.538547 157 9499ft 118kts
12-Jan-19 11:46 40.931836 -122.521874 157 9500ft 118kts
12-Jan-19 11:47 40.901236 -122.505244 157 9499ft 119kts
12-Jan-19 11:48 40.870732 -122.488680 157 9500ft 118kts
12-Jan-19 11:49 40.840009 -122.472019 157 9500ft 118kts
12-Jan-19 11:50 40.808407 -122.454912 157 9185ft 128kts
12-Jan-19 11:51 40.776360 -122.437579 157 8521ft 123kts
12-Jan-19 11:52 40.744929 -122.420587 157 7624ft 121kts
12-Jan-19 11:53 40.713541 -122.403629 157 6720ft 121kts
12-Jan-19 11:54 40.682714 -122.386489 149 5588ft 116kts
12-Jan-19 11:55 40.655301 -122.362035 142 4472ft 118kts
12-Jan-19 11:56 40.630689 -122.334271 137 3526ft 112kts
12-Jan-19 11:57 40.605533 -122.309898 150 2588ft 111kts
12-Jan-19 11:58 40.577123 -122.297468 170 1769ft 93kts
12-Jan-19 11:59 40.557179 -122.295027 179 1334ft 68kts
12-Jan-19 12:00 40.538480 -122.294816 179 930ft 66kts
12-Jan-19 12:01 40.520085 -122.294915 180 511ft 55kts
12-Jan-19 12:02 40.516785 -122.295855 227 505ft 0kts
12-Jan-19 12:03 40.516592 -122.296098 221 505ft 0kts
12-Jan-19 12:04 40.515023 -122.298062 196 505ft 12kts
12-Jan-19 12:05 40.511713 -122.298586 197 505ft 11kts
12-Jan-19 12:06 40.511404 -122.299303 271 505ft 0kts
12-Jan-19 12:07 40.511404 -122.299303 271 505ft 0kts
12-Jan-19 12:08 40.511404 -122.299303 271 505ft 0kts
12-Jan-19 12:09 40.511404 -122.299303 271 505ft 0kts

Navigation Log

Ident Type
Flight plan parsing failed, navigation log unavailable